createdAt,value
2023-03-23T15:58:48.377Z,12.68
2023-03-23T16:01:23.903Z,15.18
2023-03-23T16:04:07.093Z,13.52
2023-03-23T16:06:35.826Z,23.63
2023-03-23T16:09:04.161Z,15.10
2023-03-23T16:11:32.594Z,13.70
2023-03-23T16:14:00.289Z,16.50
2023-03-23T16:16:32.671Z,16.25
2023-03-23T16:18:59.657Z,19.65
2023-03-23T16:21:26.769Z,18.45
2023-03-23T16:23:53.794Z,17.17
2023-03-23T16:26:20.933Z,21.88
2023-03-23T16:28:47.832Z,20.83
2023-03-23T16:31:15.653Z,18.27
2023-03-23T16:33:42.578Z,23.83
2023-03-23T16:36:12.860Z,18.83
2023-03-23T16:38:49.622Z,20.98
2023-03-23T16:41:18.158Z,21.27
2023-03-23T16:43:45.035Z,19.02
2023-03-23T16:46:13.652Z,23.10
2023-03-23T16:48:40.735Z,19.58
2023-03-23T16:51:08.177Z,24.52
2023-03-23T16:53:36.130Z,22.98
2023-03-23T16:56:03.946Z,22.25
2023-03-23T16:58:31.192Z,30.00
2023-03-23T17:00:58.418Z,28.38
2023-03-23T17:03:25.688Z,32.28
2023-03-23T17:05:53.169Z,39.95
2023-03-23T17:08:30.014Z,46.25
2023-03-23T17:10:56.968Z,33.95
2023-03-23T17:13:25.609Z,34.75
2023-03-23T17:15:55.258Z,42.80
2023-03-23T17:18:24.552Z,38.33
2023-03-23T17:20:54.474Z,32.40
2023-03-23T17:23:21.838Z,45.20
2023-03-23T17:25:48.937Z,43.30
2023-03-23T17:28:16.280Z,34.80
2023-03-23T17:30:44.792Z,31.67
2023-03-23T17:33:12.989Z,39.45
2023-03-23T17:35:40.333Z,37.70
2023-03-23T17:38:07.285Z,54.17
2023-03-23T17:40:34.226Z,46.25
2023-03-23T17:43:01.217Z,37.95
2023-03-23T17:45:28.193Z,32.47
2023-03-23T17:47:55.174Z,35.53
2023-03-23T17:50:22.444Z,31.98
2023-03-23T17:52:50.032Z,30.27
2023-03-23T17:55:17.179Z,30.02
2023-03-23T17:57:44.901Z,31.15
2023-03-23T18:00:13.830Z,32.97
2023-03-23T18:02:41.035Z,32.38
2023-03-23T18:05:09.563Z,29.25
2023-03-23T18:07:37.252Z,45.97
2023-03-23T18:10:11.830Z,34.00
2023-03-23T18:12:40.353Z,30.25
2023-03-23T18:15:08.412Z,39.05
2023-03-23T18:17:35.574Z,48.85
2023-03-23T18:20:03.745Z,45.67
2023-03-23T18:22:30.786Z,60.08
2023-03-23T18:24:58.593Z,60.03
2023-03-23T18:27:26.379Z,62.95
2023-03-23T18:29:53.412Z,91.07
2023-03-23T18:32:20.796Z,57.97
2023-03-23T18:34:48.730Z,72.40
2023-03-23T18:37:16.115Z,76.05
2023-03-23T18:39:43.304Z,76.65
2023-03-23T18:42:10.223Z,83.07
2023-03-23T18:44:37.389Z,91.63
2023-03-23T18:47:04.766Z,86.82
2023-03-23T18:49:33.561Z,90.85
2023-03-23T18:52:01.044Z,80.75
2023-03-23T18:54:28.988Z,88.43
2023-03-23T18:57:00.443Z,86.57
2023-03-23T18:59:30.599Z,75.70
2023-03-23T19:01:58.165Z,84.60
2023-03-23T19:04:25.472Z,115.38
2023-03-23T19:06:52.635Z,95.43
2023-03-23T19:09:19.662Z,89.00
2023-03-23T19:11:47.621Z,88.90
2023-03-23T19:14:15.947Z,84.63
2023-03-23T19:16:42.814Z,81.32
2023-03-23T19:19:10.314Z,73.15
2023-03-23T19:21:40.035Z,78.43
2023-03-23T19:24:07.864Z,70.32
2023-03-23T19:26:43.674Z,74.25
2023-03-23T19:41:48.597Z,80.50
2023-03-23T19:44:15.656Z,80.63
2023-03-23T19:46:42.632Z,75.80
2023-03-23T19:49:09.891Z,69.57
2023-03-23T19:51:37.033Z,69.40
2023-03-23T19:54:07.151Z,65.50
2023-03-23T19:56:35.285Z,76.68
2023-03-23T19:59:02.188Z,65.05
2023-03-23T20:01:29.489Z,70.82
2023-03-23T20:03:59.984Z,64.82
2023-03-23T20:06:29.249Z,68.05
2023-03-23T20:09:00.231Z,81.22
2023-03-23T20:11:27.878Z,89.22
2023-03-23T20:13:55.449Z,78.38
2023-03-23T20:16:22.742Z,85.40
2023-03-23T20:18:50.317Z,98.82
2023-03-23T20:21:22.406Z,92.18
2023-03-23T20:23:54.402Z,95.68
2023-03-23T20:26:42.438Z,92.88
2023-03-23T20:29:10.579Z,84.00
2023-03-23T20:31:40.719Z,83.53
2023-03-23T20:34:11.725Z,77.25
2023-03-23T20:36:45.353Z,87.72
2023-03-23T20:39:23.401Z,87.88
2023-03-23T20:41:54.837Z,88.68
2023-03-23T20:44:25.306Z,78.25
2023-03-23T20:46:54.987Z,67.70
2023-03-23T20:49:22.990Z,69.18
2023-03-23T20:51:51.965Z,74.18
2023-03-23T20:54:20.375Z,67.45
2023-03-23T20:56:48.330Z,73.65
2023-03-23T20:59:15.948Z,68.50
2023-03-23T21:01:43.884Z,83.30
2023-03-23T21:04:16.483Z,70.43
2023-03-23T21:06:44.704Z,73.07
2023-03-23T21:09:13.565Z,78.38
2023-03-23T21:11:40.751Z,100.38
2023-03-23T21:14:08.963Z,77.32
2023-03-23T21:16:36.355Z,79.05
2023-03-23T21:19:04.860Z,82.80
2023-03-23T21:21:31.730Z,80.95
2023-03-23T21:23:59.196Z,75.65
2023-03-23T21:26:29.033Z,69.18
2023-03-23T21:29:01.725Z,85.50
2023-03-23T21:31:33.371Z,74.90
2023-03-23T21:34:01.157Z,73.05
2023-03-23T21:36:29.053Z,84.03
2023-03-23T21:39:02.469Z,78.10
2023-03-23T21:41:42.612Z,86.70
2023-03-23T21:44:13.704Z,86.05
2023-03-23T21:46:42.125Z,84.88
2023-03-23T21:49:14.302Z,74.45
2023-03-23T21:51:42.200Z,258.50
2023-03-23T21:54:11.892Z,158.40
2023-03-23T21:56:38.974Z,89.28
2023-03-23T21:59:07.794Z,88.10
2023-03-23T22:01:37.215Z,81.68
2023-03-23T22:04:05.256Z,90.65
2023-03-23T22:06:35.644Z,87.97
2023-03-23T22:09:05.580Z,98.18
2023-03-23T22:11:32.975Z,78.72
2023-03-23T22:14:01.067Z,97.47
2023-03-23T22:16:31.436Z,94.80
2023-03-23T22:19:00.366Z,87.10
2023-03-23T22:21:29.761Z,81.05
2023-03-23T22:24:00.521Z,92.68
2023-03-23T22:26:28.699Z,92.60
2023-03-23T22:28:56.578Z,82.70
2023-03-23T22:31:27.861Z,95.00
2023-03-23T22:33:56.985Z,111.43
2023-03-23T22:36:25.966Z,90.00
2023-03-23T22:38:53.412Z,98.53
2023-03-23T22:41:25.118Z,85.75
2023-03-23T22:43:52.506Z,91.65
2023-03-23T22:46:19.500Z,111.47
2023-03-23T22:48:46.757Z,87.30
2023-03-23T22:51:15.661Z,91.68
2023-03-23T22:53:42.978Z,94.28
2023-03-23T22:56:12.768Z,93.15
2023-03-23T22:58:41.053Z,97.88
2023-03-23T23:01:12.447Z,87.15
2023-03-23T23:03:40.527Z,81.28
2023-03-23T23:06:08.293Z,76.72
2023-03-23T23:08:35.306Z,89.50
2023-03-23T23:11:03.395Z,82.97
2023-03-23T23:13:32.634Z,78.28
2023-03-23T23:16:04.355Z,75.50
2023-03-23T23:18:33.298Z,84.78
2023-03-23T23:21:04.559Z,88.10
2023-03-23T23:23:31.798Z,96.78
2023-03-23T23:25:58.640Z,97.13
2023-03-23T23:28:25.587Z,98.80
2023-03-23T23:30:52.689Z,95.80
2023-03-23T23:33:20.555Z,107.78
2023-03-23T23:35:48.080Z,107.32
2023-03-23T23:38:16.749Z,125.72
2023-03-23T23:40:45.418Z,125.28
2023-03-23T23:43:14.897Z,138.30
2023-03-23T23:45:45.240Z,132.35
2023-03-23T23:48:14.912Z,152.65
2023-03-23T23:50:41.767Z,149.73
2023-03-23T23:53:10.017Z,148.35
2023-03-23T23:55:38.725Z,145.02
2023-03-23T23:58:05.751Z,147.80
